EKAH/AAR METAR and TAF weather

Enter ICAO airport designator
Station Type Date Time Source
EKAH METAR 2021/04/14 19:50 UTC NOAA

EKAH 141950Z AUTO 24001KT 9999 NCD 01/M04 Q1030


Station Type Date Time Source
EKAH Decoded METAR 2021/04/14 19:50 UTC NOAA

Tirstrup, Denmark (EKAH) 56-18N 010-37E 25M
Apr 14, 2021 - 03:50 PM EDT / 2021.04.14 1950 UTC
Wind: from the WSW (240 degrees) at 1 MPH (1 KT):0
Visibility: greater than 7 mile(s):0
Temperature: 33 F (1 C)
Dew Point: 24 F (-4 C)
Relative Humidity: 69%
Pressure (altimeter): 30.42 in. Hg (1030 hPa)
ob: EKAH 141950Z AUTO 24001KT 9999 NCD 01/M04 Q1030
cycle: 20

Station Type Date Time Source
EKAH TAF 2021/04/14 18:31 UTC NOAA

TAF EKAH 141716Z 1418/1518 08005KT CAVOK
TEMPO 1509/1516 SCT030TCU

Example: see airport list